sensor_id;sensor_type;location;lat;lon;timestamp;P1;durP1;ratioP1;P2;durP2;ratioP2
73557;SDS011;61829;53.286;10.434;2023-06-10T00:01:49;8.13;;;3.30;;
73557;SDS011;61829;53.286;10.434;2023-06-10T00:04:15;7.95;;;3.40;;
73557;SDS011;61829;53.286;10.434;2023-06-10T00:06:43;6.18;;;3.08;;
73557;SDS011;61829;53.286;10.434;2023-06-10T00:09:09;9.65;;;3.25;;
73557;SDS011;61829;53.286;10.434;2023-06-10T00:11:40;10.85;;;3.40;;
73557;SDS011;61829;53.286;10.434;2023-06-10T00:14:06;8.52;;;3.80;;
73557;SDS011;61829;53.286;10.434;2023-06-10T00:16:33;7.22;;;3.30;;
73557;SDS011;61829;53.286;10.434;2023-06-10T00:19:03;8.75;;;3.50;;
73557;SDS011;61829;53.286;10.434;2023-06-10T00:21:29;6.57;;;3.10;;
73557;SDS011;61829;53.286;10.434;2023-06-10T00:24:06;8.98;;;3.45;;
73557;SDS011;61829;53.286;10.434;2023-06-10T00:26:40;7.22;;;3.28;;
73557;SDS011;61829;53.286;10.434;2023-06-10T00:29:06;7.90;;;3.40;;
73557;SDS011;61829;53.286;10.434;2023-06-10T00:31:37;6.45;;;3.20;;
73557;SDS011;61829;53.286;10.434;2023-06-10T00:34:03;9.82;;;3.50;;
73557;SDS011;61829;53.286;10.434;2023-06-10T00:36:29;8.00;;;2.97;;
73557;SDS011;61829;53.286;10.434;2023-06-10T00:38:56;10.38;;;3.58;;
73557;SDS011;61829;53.286;10.434;2023-06-10T00:41:22;7.93;;;3.55;;
73557;SDS011;61829;53.286;10.434;2023-06-10T00:43:48;10.10;;;3.40;;
73557;SDS011;61829;53.286;10.434;2023-06-10T00:46:14;10.85;;;3.72;;
73557;SDS011;61829;53.286;10.434;2023-06-10T00:48:42;7.97;;;3.78;;
73557;SDS011;61829;53.286;10.434;2023-06-10T00:51:27;7.10;;;3.67;;
73557;SDS011;61829;53.286;10.434;2023-06-10T00:53:53;6.95;;;3.03;;
73557;SDS011;61829;53.286;10.434;2023-06-10T00:56:20;10.85;;;3.80;;
73557;SDS011;61829;53.286;10.434;2023-06-10T00:58:47;6.28;;;3.00;;
73557;SDS011;61829;53.286;10.434;2023-06-10T01:01:13;9.60;;;3.95;;
73557;SDS011;61829;53.286;10.434;2023-06-10T01:03:39;7.25;;;2.95;;
73557;SDS011;61829;53.286;10.434;2023-06-10T01:06:13;9.88;;;3.55;;
73557;SDS011;61829;53.286;10.434;2023-06-10T01:08:46;9.95;;;3.72;;
73557;SDS011;61829;53.286;10.434;2023-06-10T01:11:23;8.88;;;3.70;;
73557;SDS011;61829;53.286;10.434;2023-06-10T01:13:53;8.98;;;3.67;;
73557;SDS011;61829;53.286;10.434;2023-06-10T01:16:22;6.80;;;2.80;;
73557;SDS011;61829;53.286;10.434;2023-06-10T01:18:48;7.65;;;2.97;;
73557;SDS011;61829;53.286;10.434;2023-06-10T01:21:23;9.52;;;3.42;;
73557;SDS011;61829;53.286;10.434;2023-06-10T01:23:51;9.18;;;3.13;;
73557;SDS011;61829;53.286;10.434;2023-06-10T01:26:22;6.93;;;3.13;;
73557;SDS011;61829;53.286;10.434;2023-06-10T01:28:54;7.72;;;3.30;;
73557;SDS011;61829;53.286;10.434;2023-06-10T01:34:27;10.20;;;3.30;;
73557;SDS011;61829;53.286;10.434;2023-06-10T01:36:53;10.02;;;3.55;;
73557;SDS011;61829;53.286;10.434;2023-06-10T01:39:22;7.88;;;3.20;;
73557;SDS011;61829;53.286;10.434;2023-06-10T01:41:51;7.45;;;3.22;;
73557;SDS011;61829;53.286;10.434;2023-06-10T01:44:18;6.80;;;3.42;;
73557;SDS011;61829;53.286;10.434;2023-06-10T01:46:46;6.13;;;2.97;;
73557;SDS011;61829;53.286;10.434;2023-06-10T01:49:12;7.30;;;3.10;;
73557;SDS011;61829;53.286;10.434;2023-06-10T01:51:38;8.10;;;3.00;;
73557;SDS011;61829;53.286;10.434;2023-06-10T01:54:04;7.03;;;3.30;;
73557;SDS011;61829;53.286;10.434;2023-06-10T01:56:32;8.02;;;3.15;;
73557;SDS011;61829;53.286;10.434;2023-06-10T01:58:58;7.03;;;2.90;;
73557;SDS011;61829;53.286;10.434;2023-06-10T02:01:27;6.32;;;2.55;;
73557;SDS011;61829;53.286;10.434;2023-06-10T02:03:53;9.55;;;3.30;;
73557;SDS011;61829;53.286;10.434;2023-06-10T02:09:22;8.48;;;3.08;;
73557;SDS011;61829;53.286;10.434;2023-06-10T02:11:48;7.20;;;2.80;;
73557;SDS011;61829;53.286;10.434;2023-06-10T02:14:14;5.68;;;2.70;;
73557;SDS011;61829;53.286;10.434;2023-06-10T02:16:40;6.53;;;2.75;;
73557;SDS011;61829;53.286;10.434;2023-06-10T02:19:06;7.07;;;3.20;;
73557;SDS011;61829;53.286;10.434;2023-06-10T02:21:32;8.65;;;3.20;;
73557;SDS011;61829;53.286;10.434;2023-06-10T02:23:59;10.00;;;3.22;;
73557;SDS011;61829;53.286;10.434;2023-06-10T02:26:26;6.40;;;2.80;;
73557;SDS011;61829;53.286;10.434;2023-06-10T02:28:52;7.45;;;3.00;;
73557;SDS011;61829;53.286;10.434;2023-06-10T02:31:18;4.93;;;2.55;;
73557;SDS011;61829;53.286;10.434;2023-06-10T02:33:48;10.27;;;3.25;;
73557;SDS011;61829;53.286;10.434;2023-06-10T02:36:14;10.75;;;3.03;;
73557;SDS011;61829;53.286;10.434;2023-06-10T02:38:41;9.43;;;3.25;;
73557;SDS011;61829;53.286;10.434;2023-06-10T02:41:07;7.55;;;2.95;;
73557;SDS011;61829;53.286;10.434;2023-06-10T02:43:33;6.30;;;2.67;;
73557;SDS011;61829;53.286;10.434;2023-06-10T02:46:11;11.27;;;2.83;;
73557;SDS011;61829;53.286;10.434;2023-06-10T02:48:41;6.13;;;2.55;;
73557;SDS011;61829;53.286;10.434;2023-06-10T02:51:08;6.97;;;2.40;;
73557;SDS011;61829;53.286;10.434;2023-06-10T02:53:35;6.32;;;2.65;;
73557;SDS011;61829;53.286;10.434;2023-06-10T02:56:01;5.30;;;2.40;;
73557;SDS011;61829;53.286;10.434;2023-06-10T02:58:27;8.18;;;2.97;;
73557;SDS011;61829;53.286;10.434;2023-06-10T03:00:53;6.72;;;2.63;;
73557;SDS011;61829;53.286;10.434;2023-06-10T03:03:18;5.95;;;2.65;;
73557;SDS011;61829;53.286;10.434;2023-06-10T03:05:45;9.23;;;2.92;;
73557;SDS011;61829;53.286;10.434;2023-06-10T03:08:11;4.75;;;2.20;;
73557;SDS011;61829;53.286;10.434;2023-06-10T03:10:37;5.60;;;2.40;;
73557;SDS011;61829;53.286;10.434;2023-06-10T03:13:03;6.68;;;2.63;;
73557;SDS011;61829;53.286;10.434;2023-06-10T03:15:29;8.95;;;2.85;;
73557;SDS011;61829;53.286;10.434;2023-06-10T03:17:59;6.32;;;2.75;;
73557;SDS011;61829;53.286;10.434;2023-06-10T03:20:26;8.35;;;3.20;;
73557;SDS011;61829;53.286;10.434;2023-06-10T03:25:18;8.93;;;2.78;;
73557;SDS011;61829;53.286;10.434;2023-06-10T03:27:46;7.40;;;2.70;;
73557;SDS011;61829;53.286;10.434;2023-06-10T03:30:12;6.97;;;2.70;;
73557;SDS011;61829;53.286;10.434;2023-06-10T03:32:38;5.45;;;2.70;;
73557;SDS011;61829;53.286;10.434;2023-06-10T03:35:06;6.72;;;3.08;;
73557;SDS011;61829;53.286;10.434;2023-06-10T03:37:32;6.65;;;2.60;;
73557;SDS011;61829;53.286;10.434;2023-06-10T03:39:58;6.30;;;2.38;;
73557;SDS011;61829;53.286;10.434;2023-06-10T03:42:24;5.72;;;2.80;;
73557;SDS011;61829;53.286;10.434;2023-06-10T03:44:50;7.22;;;2.55;;
73557;SDS011;61829;53.286;10.434;2023-06-10T03:47:16;6.88;;;2.53;;
73557;SDS011;61829;53.286;10.434;2023-06-10T03:49:42;5.90;;;3.03;;
73557;SDS011;61829;53.286;10.434;2023-06-10T03:52:08;7.90;;;2.50;;
73557;SDS011;61829;53.286;10.434;2023-06-10T03:54:34;5.75;;;2.50;;
73557;SDS011;61829;53.286;10.434;2023-06-10T03:57:00;7.88;;;2.50;;
73557;SDS011;61829;53.286;10.434;2023-06-10T03:59:27;5.85;;;2.15;;
73557;SDS011;61829;53.286;10.434;2023-06-10T04:01:54;6.07;;;2.45;;
73557;SDS011;61829;53.286;10.434;2023-06-10T04:04:20;9.57;;;2.72;;
73557;SDS011;61829;53.286;10.434;2023-06-10T04:06:45;8.65;;;2.83;;
73557;SDS011;61829;53.286;10.434;2023-06-10T04:09:11;9.98;;;2.60;;
73557;SDS011;61829;53.286;10.434;2023-06-10T04:11:38;8.05;;;2.67;;
73557;SDS011;61829;53.286;10.434;2023-06-10T04:14:04;6.05;;;2.50;;
73557;SDS011;61829;53.286;10.434;2023-06-10T04:16:29;7.25;;;2.45;;
73557;SDS011;61829;53.286;10.434;2023-06-10T04:18:56;7.38;;;2.50;;
73557;SDS011;61829;53.286;10.434;2023-06-10T04:21:21;8.02;;;2.97;;
73557;SDS011;61829;53.286;10.434;2023-06-10T04:23:47;9.38;;;2.42;;
73557;SDS011;61829;53.286;10.434;2023-06-10T04:26:13;6.20;;;2.30;;
73557;SDS011;61829;53.286;10.434;2023-06-10T04:28:39;9.32;;;2.42;;
73557;SDS011;61829;53.286;10.434;2023-06-10T04:31:05;8.45;;;2.33;;
73557;SDS011;61829;53.286;10.434;2023-06-10T04:33:31;5.32;;;2.22;;
73557;SDS011;61829;53.286;10.434;2023-06-10T04:35:57;5.28;;;2.72;;
73557;SDS011;61829;53.286;10.434;2023-06-10T04:38:24;4.55;;;1.95;;
73557;SDS011;61829;53.286;10.434;2023-06-10T04:40:49;5.88;;;2.08;;
73557;SDS011;61829;53.286;10.434;2023-06-10T04:43:15;10.40;;;2.60;;
73557;SDS011;61829;53.286;10.434;2023-06-10T04:45:41;8.88;;;2.28;;
73557;SDS011;61829;53.286;10.434;2023-06-10T04:48:10;5.90;;;1.80;;
73557;SDS011;61829;53.286;10.434;2023-06-10T04:50:38;7.32;;;1.92;;
73557;SDS011;61829;53.286;10.434;2023-06-10T04:53:04;6.07;;;2.20;;
73557;SDS011;61829;53.286;10.434;2023-06-10T04:55:31;7.93;;;2.30;;
73557;SDS011;61829;53.286;10.434;2023-06-10T05:01:39;9.63;;;2.20;;
73557;SDS011;61829;53.286;10.434;2023-06-10T05:04:05;4.95;;;1.88;;
73557;SDS011;61829;53.286;10.434;2023-06-10T05:06:31;5.95;;;2.10;;
73557;SDS011;61829;53.286;10.434;2023-06-10T05:08:57;6.70;;;1.92;;
73557;SDS011;61829;53.286;10.434;2023-06-10T05:11:24;8.68;;;2.20;;
73557;SDS011;61829;53.286;10.434;2023-06-10T05:13:50;6.00;;;2.13;;
73557;SDS011;61829;53.286;10.434;2023-06-10T05:16:15;7.38;;;2.22;;
73557;SDS011;61829;53.286;10.434;2023-06-10T05:18:41;6.50;;;1.88;;
73557;SDS011;61829;53.286;10.434;2023-06-10T05:21:07;6.20;;;1.80;;
73557;SDS011;61829;53.286;10.434;2023-06-10T05:23:33;6.65;;;2.20;;
73557;SDS011;61829;53.286;10.434;2023-06-10T05:25:59;4.70;;;1.70;;
73557;SDS011;61829;53.286;10.434;2023-06-10T05:28:28;9.85;;;2.53;;
73557;SDS011;61829;53.286;10.434;2023-06-10T05:30:53;5.45;;;2.13;;
73557;SDS011;61829;53.286;10.434;2023-06-10T05:33:19;5.70;;;1.80;;
73557;SDS011;61829;53.286;10.434;2023-06-10T05:35:45;6.05;;;1.90;;
73557;SDS011;61829;53.286;10.434;2023-06-10T05:38:11;5.78;;;2.42;;
73557;SDS011;61829;53.286;10.434;2023-06-10T05:40:37;6.45;;;2.28;;
73557;SDS011;61829;53.286;10.434;2023-06-10T05:43:03;5.72;;;1.88;;
73557;SDS011;61829;53.286;10.434;2023-06-10T05:45:28;4.88;;;1.70;;
73557;SDS011;61829;53.286;10.434;2023-06-10T05:47:54;5.18;;;1.73;;
73557;SDS011;61829;53.286;10.434;2023-06-10T05:50:21;5.47;;;1.98;;
73557;SDS011;61829;53.286;10.434;2023-06-10T05:52:47;3.72;;;1.70;;
73557;SDS011;61829;53.286;10.434;2023-06-10T05:58:03;6.68;;;2.03;;
73557;SDS011;61829;53.286;10.434;2023-06-10T06:00:28;6.97;;;1.80;;
73557;SDS011;61829;53.286;10.434;2023-06-10T06:02:54;6.95;;;2.40;;
73557;SDS011;61829;53.286;10.434;2023-06-10T06:05:22;8.15;;;1.95;;
73557;SDS011;61829;53.286;10.434;2023-06-10T06:07:49;5.82;;;2.10;;
73557;SDS011;61829;53.286;10.434;2023-06-10T06:10:16;5.00;;;1.92;;
73557;SDS011;61829;53.286;10.434;2023-06-10T06:12:42;7.47;;;2.00;;
73557;SDS011;61829;53.286;10.434;2023-06-10T06:15:09;5.72;;;1.92;;
73557;SDS011;61829;53.286;10.434;2023-06-10T06:17:35;7.13;;;2.33;;
73557;SDS011;61829;53.286;10.434;2023-06-10T06:20:01;4.65;;;1.67;;
73557;SDS011;61829;53.286;10.434;2023-06-10T06:22:30;8.23;;;2.20;;
73557;SDS011;61829;53.286;10.434;2023-06-10T06:24:58;5.45;;;2.20;;
73557;SDS011;61829;53.286;10.434;2023-06-10T06:27:24;5.13;;;2.25;;
73557;SDS011;61829;53.286;10.434;2023-06-10T06:29:49;7.55;;;2.30;;
73557;SDS011;61829;53.286;10.434;2023-06-10T06:32:17;5.60;;;2.28;;
73557;SDS011;61829;53.286;10.434;2023-06-10T06:34:42;8.30;;;2.30;;
73557;SDS011;61829;53.286;10.434;2023-06-10T06:37:08;9.65;;;2.00;;
73557;SDS011;61829;53.286;10.434;2023-06-10T06:39:34;7.20;;;2.30;;
73557;SDS011;61829;53.286;10.434;2023-06-10T06:42:00;6.18;;;1.88;;
73557;SDS011;61829;53.286;10.434;2023-06-10T06:44:25;6.53;;;2.03;;
73557;SDS011;61829;53.286;10.434;2023-06-10T06:46:51;8.98;;;2.30;;
73557;SDS011;61829;53.286;10.434;2023-06-10T06:49:17;7.78;;;1.95;;
73557;SDS011;61829;53.286;10.434;2023-06-10T06:51:43;7.25;;;2.00;;
73557;SDS011;61829;53.286;10.434;2023-06-10T06:54:09;8.05;;;2.33;;
73557;SDS011;61829;53.286;10.434;2023-06-10T06:56:34;4.72;;;2.00;;
73557;SDS011;61829;53.286;10.434;2023-06-10T06:59:00;5.93;;;2.30;;
73557;SDS011;61829;53.286;10.434;2023-06-10T07:01:35;7.65;;;2.30;;
73557;SDS011;61829;53.286;10.434;2023-06-10T07:04:01;9.23;;;2.40;;
73557;SDS011;61829;53.286;10.434;2023-06-10T07:06:27;6.18;;;2.38;;
73557;SDS011;61829;53.286;10.434;2023-06-10T07:08:53;7.10;;;2.38;;
73557;SDS011;61829;53.286;10.434;2023-06-10T07:11:18;8.45;;;2.38;;
73557;SDS011;61829;53.286;10.434;2023-06-10T07:13:44;5.68;;;2.00;;
73557;SDS011;61829;53.286;10.434;2023-06-10T07:16:10;5.88;;;2.15;;
73557;SDS011;61829;53.286;10.434;2023-06-10T07:18:36;7.60;;;2.33;;
73557;SDS011;61829;53.286;10.434;2023-06-10T07:21:02;7.13;;;2.22;;
73557;SDS011;61829;53.286;10.434;2023-06-10T07:23:28;6.32;;;2.42;;
73557;SDS011;61829;53.286;10.434;2023-06-10T07:25:54;6.60;;;2.20;;
73557;SDS011;61829;53.286;10.434;2023-06-10T07:28:20;5.25;;;2.03;;
73557;SDS011;61829;53.286;10.434;2023-06-10T07:30:46;7.85;;;2.67;;
73557;SDS011;61829;53.286;10.434;2023-06-10T07:33:12;9.82;;;2.35;;
73557;SDS011;61829;53.286;10.434;2023-06-10T07:35:37;7.65;;;2.30;;
73557;SDS011;61829;53.286;10.434;2023-06-10T07:38:04;7.05;;;2.05;;
73557;SDS011;61829;53.286;10.434;2023-06-10T07:40:30;6.10;;;2.03;;
73557;SDS011;61829;53.286;10.434;2023-06-10T07:42:56;6.72;;;2.15;;
73557;SDS011;61829;53.286;10.434;2023-06-10T07:45:21;6.28;;;2.15;;
73557;SDS011;61829;53.286;10.434;2023-06-10T07:47:47;7.07;;;2.65;;
73557;SDS011;61829;53.286;10.434;2023-06-10T07:50:13;7.57;;;2.13;;
73557;SDS011;61829;53.286;10.434;2023-06-10T07:52:39;6.88;;;2.08;;
73557;SDS011;61829;53.286;10.434;2023-06-10T07:55:05;6.88;;;2.30;;
73557;SDS011;61829;53.286;10.434;2023-06-10T08:00:00;7.30;;;2.55;;
73557;SDS011;61829;53.286;10.434;2023-06-10T08:02:27;5.35;;;2.15;;
73557;SDS011;61829;53.286;10.434;2023-06-10T08:04:53;8.02;;;2.67;;
73557;SDS011;61829;53.286;10.434;2023-06-10T08:07:19;7.72;;;2.45;;
73557;SDS011;61829;53.286;10.434;2023-06-10T08:09:45;5.43;;;2.22;;
73557;SDS011;61829;53.286;10.434;2023-06-10T08:12:11;6.15;;;2.20;;
73557;SDS011;61829;53.286;10.434;2023-06-10T08:14:37;7.85;;;2.60;;
73557;SDS011;61829;53.286;10.434;2023-06-10T08:17:04;7.45;;;2.30;;
73557;SDS011;61829;53.286;10.434;2023-06-10T08:19:31;6.60;;;2.40;;
73557;SDS011;61829;53.286;10.434;2023-06-10T08:21:57;7.57;;;2.75;;
73557;SDS011;61829;53.286;10.434;2023-06-10T08:24:23;6.15;;;2.50;;
73557;SDS011;61829;53.286;10.434;2023-06-10T08:26:50;7.80;;;2.78;;
73557;SDS011;61829;53.286;10.434;2023-06-10T08:29:15;7.22;;;2.38;;
73557;SDS011;61829;53.286;10.434;2023-06-10T08:31:42;7.30;;;2.45;;
73557;SDS011;61829;53.286;10.434;2023-06-10T08:34:09;7.40;;;2.60;;
73557;SDS011;61829;53.286;10.434;2023-06-10T08:36:37;7.90;;;2.72;;
73557;SDS011;61829;53.286;10.434;2023-06-10T08:39:03;11.77;;;2.42;;
73557;SDS011;61829;53.286;10.434;2023-06-10T08:41:30;8.27;;;2.50;;
73557;SDS011;61829;53.286;10.434;2023-06-10T08:44:08;5.28;;;2.58;;
73557;SDS011;61829;53.286;10.434;2023-06-10T08:46:48;6.30;;;2.60;;
73557;SDS011;61829;53.286;10.434;2023-06-10T08:49:17;6.93;;;2.83;;
73557;SDS011;61829;53.286;10.434;2023-06-10T08:51:50;5.60;;;2.63;;
73557;SDS011;61829;53.286;10.434;2023-06-10T08:54:28;6.40;;;2.70;;
73557;SDS011;61829;53.286;10.434;2023-06-10T08:56:58;9.85;;;2.80;;
73557;SDS011;61829;53.286;10.434;2023-06-10T08:59:25;8.13;;;2.83;;
73557;SDS011;61829;53.286;10.434;2023-06-10T09:01:51;8.07;;;2.38;;
73557;SDS011;61829;53.286;10.434;2023-06-10T09:04:19;6.97;;;2.97;;
73557;SDS011;61829;53.286;10.434;2023-06-10T09:06:46;7.63;;;2.55;;
73557;SDS011;61829;53.286;10.434;2023-06-10T09:09:12;6.28;;;2.85;;
73557;SDS011;61829;53.286;10.434;2023-06-10T09:11:43;6.60;;;2.92;;
73557;SDS011;61829;53.286;10.434;2023-06-10T09:14:08;7.38;;;2.80;;
73557;SDS011;61829;53.286;10.434;2023-06-10T09:16:35;8.40;;;2.80;;
73557;SDS011;61829;53.286;10.434;2023-06-10T09:19:01;6.50;;;2.80;;
73557;SDS011;61829;53.286;10.434;2023-06-10T09:21:34;10.80;;;3.15;;
73557;SDS011;61829;53.286;10.434;2023-06-10T09:24:01;7.25;;;3.08;;
73557;SDS011;61829;53.286;10.434;2023-06-10T09:26:30;6.43;;;2.67;;
73557;SDS011;61829;53.286;10.434;2023-06-10T09:29:03;8.40;;;3.10;;
73557;SDS011;61829;53.286;10.434;2023-06-10T09:31:31;9.20;;;2.97;;
73557;SDS011;61829;53.286;10.434;2023-06-10T09:34:06;5.15;;;2.58;;
73557;SDS011;61829;53.286;10.434;2023-06-10T09:36:33;6.30;;;2.78;;
73557;SDS011;61829;53.286;10.434;2023-06-10T09:39:01;7.57;;;3.10;;
73557;SDS011;61829;53.286;10.434;2023-06-10T09:44:52;6.75;;;2.78;;
73557;SDS011;61829;53.286;10.434;2023-06-10T09:47:21;9.07;;;3.33;;
73557;SDS011;61829;53.286;10.434;2023-06-10T09:49:51;8.43;;;3.00;;
73557;SDS011;61829;53.286;10.434;2023-06-10T09:52:22;8.85;;;3.28;;
73557;SDS011;61829;53.286;10.434;2023-06-10T09:54:53;6.45;;;2.80;;
73557;SDS011;61829;53.286;10.434;2023-06-10T10:01:21;6.78;;;3.40;;
73557;SDS011;61829;53.286;10.434;2023-06-10T10:03:49;8.65;;;3.10;;
73557;SDS011;61829;53.286;10.434;2023-06-10T10:06:17;6.85;;;3.42;;
73557;SDS011;61829;53.286;10.434;2023-06-10T10:08:44;8.65;;;3.60;;
73557;SDS011;61829;53.286;10.434;2023-06-10T10:11:12;5.80;;;2.90;;
73557;SDS011;61829;53.286;10.434;2023-06-10T10:13:39;6.00;;;2.80;;
73557;SDS011;61829;53.286;10.434;2023-06-10T10:18:43;5.95;;;2.90;;
73557;SDS011;61829;53.286;10.434;2023-06-10T10:21:18;7.95;;;3.55;;
73557;SDS011;61829;53.286;10.434;2023-06-10T10:23:55;9.15;;;3.40;;
73557;SDS011;61829;53.286;10.434;2023-06-10T10:26:31;6.43;;;3.15;;
73557;SDS011;61829;53.286;10.434;2023-06-10T10:31:53;7.20;;;3.35;;
73557;SDS011;61829;53.286;10.434;2023-06-10T10:34:30;7.95;;;3.20;;
73557;SDS011;61829;53.286;10.434;2023-06-10T10:36:59;5.82;;;3.55;;
73557;SDS011;61829;53.286;10.434;2023-06-10T10:39:25;10.88;;;3.58;;
73557;SDS011;61829;53.286;10.434;2023-06-10T10:41:54;6.68;;;3.42;;
73557;SDS011;61829;53.286;10.434;2023-06-10T10:44:21;6.63;;;3.08;;
73557;SDS011;61829;53.286;10.434;2023-06-10T10:50:28;7.15;;;3.08;;
73557;SDS011;61829;53.286;10.434;2023-06-10T10:55:25;6.00;;;3.35;;
73557;SDS011;61829;53.286;10.434;2023-06-10T11:00:31;10.20;;;3.65;;
73557;SDS011;61829;53.286;10.434;2023-06-10T11:03:12;10.30;;;3.65;;
73557;SDS011;61829;53.286;10.434;2023-06-10T11:05:40;6.40;;;3.58;;
73557;SDS011;61829;53.286;10.434;2023-06-10T11:08:10;6.88;;;3.83;;
73557;SDS011;61829;53.286;10.434;2023-06-10T11:10:40;11.43;;;3.90;;
73557;SDS011;61829;53.286;10.434;2023-06-10T11:13:18;7.93;;;3.60;;
73557;SDS011;61829;53.286;10.434;2023-06-10T11:15:49;8.07;;;3.50;;
73557;SDS011;61829;53.286;10.434;2023-06-10T11:18:26;6.20;;;3.55;;
73557;SDS011;61829;53.286;10.434;2023-06-10T11:20:53;8.43;;;3.40;;
73557;SDS011;61829;53.286;10.434;2023-06-10T11:31:19;7.38;;;3.92;;
73557;SDS011;61829;53.286;10.434;2023-06-10T11:33:52;6.93;;;3.90;;
73557;SDS011;61829;53.286;10.434;2023-06-10T11:38:46;9.02;;;3.92;;
73557;SDS011;61829;53.286;10.434;2023-06-10T11:41:13;7.80;;;3.90;;
73557;SDS011;61829;53.286;10.434;2023-06-10T11:43:46;7.63;;;3.60;;
73557;SDS011;61829;53.286;10.434;2023-06-10T11:48:39;8.35;;;3.60;;
73557;SDS011;61829;53.286;10.434;2023-06-10T11:54:42;6.35;;;3.67;;
73557;SDS011;61829;53.286;10.434;2023-06-10T11:57:19;8.23;;;4.05;;
73557;SDS011;61829;53.286;10.434;2023-06-10T11:59:45;5.10;;;3.25;;
73557;SDS011;61829;53.286;10.434;2023-06-10T12:02:15;7.53;;;3.70;;
73557;SDS011;61829;53.286;10.434;2023-06-10T12:04:41;6.53;;;3.80;;
73557;SDS011;61829;53.286;10.434;2023-06-10T12:07:07;7.40;;;3.40;;
73557;SDS011;61829;53.286;10.434;2023-06-10T12:09:34;8.45;;;3.42;;
73557;SDS011;61829;53.286;10.434;2023-06-10T12:12:00;7.75;;;4.22;;
73557;SDS011;61829;53.286;10.434;2023-06-10T12:19:57;7.97;;;3.78;;
73557;SDS011;61829;53.286;10.434;2023-06-10T12:22:25;7.53;;;3.72;;
73557;SDS011;61829;53.286;10.434;2023-06-10T12:24:58;7.28;;;3.38;;
73557;SDS011;61829;53.286;10.434;2023-06-10T12:27:28;5.95;;;3.70;;
73557;SDS011;61829;53.286;10.434;2023-06-10T12:29:56;6.75;;;3.55;;
73557;SDS011;61829;53.286;10.434;2023-06-10T12:32:41;6.82;;;3.47;;
73557;SDS011;61829;53.286;10.434;2023-06-10T12:35:11;6.75;;;4.10;;
73557;SDS011;61829;53.286;10.434;2023-06-10T12:37:41;7.72;;;3.60;;
73557;SDS011;61829;53.286;10.434;2023-06-10T12:40:08;6.80;;;3.42;;
73557;SDS011;61829;53.286;10.434;2023-06-10T12:42:35;6.85;;;3.78;;
73557;SDS011;61829;53.286;10.434;2023-06-10T12:45:02;8.07;;;3.85;;
73557;SDS011;61829;53.286;10.434;2023-06-10T12:47:33;9.02;;;3.20;;
73557;SDS011;61829;53.286;10.434;2023-06-10T12:50:05;7.53;;;3.70;;
73557;SDS011;61829;53.286;10.434;2023-06-10T12:52:31;5.68;;;3.53;;
73557;SDS011;61829;53.286;10.434;2023-06-10T12:54:58;8.10;;;3.60;;
73557;SDS011;61829;53.286;10.434;2023-06-10T12:57:24;6.75;;;3.45;;
73557;SDS011;61829;53.286;10.434;2023-06-10T12:59:50;7.20;;;3.40;;
73557;SDS011;61829;53.286;10.434;2023-06-10T13:02:18;6.72;;;3.85;;
73557;SDS011;61829;53.286;10.434;2023-06-10T13:07:48;8.02;;;3.75;;
73557;SDS011;61829;53.286;10.434;2023-06-10T13:10:15;8.93;;;3.83;;
73557;SDS011;61829;53.286;10.434;2023-06-10T13:12:42;7.95;;;3.72;;
73557;SDS011;61829;53.286;10.434;2023-06-10T13:15:09;6.70;;;3.03;;
73557;SDS011;61829;53.286;10.434;2023-06-10T13:17:35;7.75;;;4.22;;
73557;SDS011;61829;53.286;10.434;2023-06-10T13:20:05;6.57;;;3.92;;
73557;SDS011;61829;53.286;10.434;2023-06-10T13:22:35;8.13;;;4.10;;
73557;SDS011;61829;53.286;10.434;2023-06-10T13:25:02;7.75;;;4.38;;
73557;SDS011;61829;53.286;10.434;2023-06-10T13:27:29;8.70;;;4.10;;
73557;SDS011;61829;53.286;10.434;2023-06-10T13:29:55;5.15;;;3.80;;
73557;SDS011;61829;53.286;10.434;2023-06-10T13:32:21;5.63;;;3.75;;
73557;SDS011;61829;53.286;10.434;2023-06-10T13:34:47;8.15;;;4.15;;
73557;SDS011;61829;53.286;10.434;2023-06-10T13:37:14;7.40;;;3.90;;
73557;SDS011;61829;53.286;10.434;2023-06-10T13:39:44;7.15;;;3.92;;
73557;SDS011;61829;53.286;10.434;2023-06-10T13:42:13;8.23;;;3.90;;
73557;SDS011;61829;53.286;10.434;2023-06-10T13:44:42;5.95;;;3.88;;
73557;SDS011;61829;53.286;10.434;2023-06-10T13:47:07;7.00;;;4.05;;
73557;SDS011;61829;53.286;10.434;2023-06-10T13:49:33;6.65;;;4.00;;
73557;SDS011;61829;53.286;10.434;2023-06-10T13:51:59;7.40;;;4.18;;
73557;SDS011;61829;53.286;10.434;2023-06-10T13:54:25;7.28;;;4.05;;
73557;SDS011;61829;53.286;10.434;2023-06-10T13:59:18;7.05;;;3.75;;
73557;SDS011;61829;53.286;10.434;2023-06-10T14:01:45;7.53;;;4.10;;
73557;SDS011;61829;53.286;10.434;2023-06-10T14:04:12;10.88;;;4.00;;
73557;SDS011;61829;53.286;10.434;2023-06-10T14:06:38;10.15;;;4.13;;
73557;SDS011;61829;53.286;10.434;2023-06-10T14:09:04;7.05;;;3.50;;
73557;SDS011;61829;53.286;10.434;2023-06-10T14:11:30;6.93;;;3.95;;
73557;SDS011;61829;53.286;10.434;2023-06-10T14:13:57;6.38;;;3.83;;
73557;SDS011;61829;53.286;10.434;2023-06-10T14:16:23;5.88;;;4.13;;
73557;SDS011;61829;53.286;10.434;2023-06-10T14:18:50;7.00;;;3.97;;
73557;SDS011;61829;53.286;10.434;2023-06-10T14:21:16;5.72;;;4.10;;
73557;SDS011;61829;53.286;10.434;2023-06-10T14:23:42;5.95;;;3.80;;
73557;SDS011;61829;53.286;10.434;2023-06-10T14:26:09;7.38;;;4.03;;
73557;SDS011;61829;53.286;10.434;2023-06-10T14:28:35;6.43;;;3.80;;
73557;SDS011;61829;53.286;10.434;2023-06-10T14:31:01;5.63;;;3.83;;
73557;SDS011;61829;53.286;10.434;2023-06-10T14:33:28;7.43;;;4.50;;
73557;SDS011;61829;53.286;10.434;2023-06-10T14:35:54;9.70;;;4.22;;
73557;SDS011;61829;53.286;10.434;2023-06-10T14:40:46;8.07;;;4.10;;
73557;SDS011;61829;53.286;10.434;2023-06-10T14:43:12;5.10;;;3.60;;
73557;SDS011;61829;53.286;10.434;2023-06-10T14:45:39;7.07;;;4.30;;
73557;SDS011;61829;53.286;10.434;2023-06-10T14:48:06;8.68;;;4.53;;
73557;SDS011;61829;53.286;10.434;2023-06-10T14:50:36;7.78;;;4.38;;
73557;SDS011;61829;53.286;10.434;2023-06-10T14:53:06;8.32;;;4.32;;
73557;SDS011;61829;53.286;10.434;2023-06-10T14:55:32;10.20;;;4.32;;
73557;SDS011;61829;53.286;10.434;2023-06-10T14:57:58;5.93;;;3.90;;
73557;SDS011;61829;53.286;10.434;2023-06-10T15:00:26;8.50;;;3.80;;
73557;SDS011;61829;53.286;10.434;2023-06-10T15:02:56;5.88;;;3.60;;
73557;SDS011;61829;53.286;10.434;2023-06-10T15:05:24;6.47;;;4.40;;
73557;SDS011;61829;53.286;10.434;2023-06-10T15:07:52;5.60;;;3.92;;
73557;SDS011;61829;53.286;10.434;2023-06-10T15:10:18;7.20;;;4.20;;
73557;SDS011;61829;53.286;10.434;2023-06-10T15:12:47;8.38;;;4.18;;
73557;SDS011;61829;53.286;10.434;2023-06-10T15:15:13;6.20;;;4.32;;
73557;SDS011;61829;53.286;10.434;2023-06-10T15:17:39;7.18;;;3.67;;
73557;SDS011;61829;53.286;10.434;2023-06-10T15:20:05;6.85;;;3.10;;
73557;SDS011;61829;53.286;10.434;2023-06-10T15:22:32;9.98;;;3.80;;
73557;SDS011;61829;53.286;10.434;2023-06-10T15:24:59;8.25;;;3.10;;
73557;SDS011;61829;53.286;10.434;2023-06-10T15:27:25;9.95;;;2.90;;
73557;SDS011;61829;53.286;10.434;2023-06-10T15:29:50;8.68;;;2.90;;
73557;SDS011;61829;53.286;10.434;2023-06-10T15:32:17;8.20;;;3.20;;
73557;SDS011;61829;53.286;10.434;2023-06-10T15:34:44;6.20;;;3.05;;
73557;SDS011;61829;53.286;10.434;2023-06-10T15:37:19;11.23;;;3.50;;
73557;SDS011;61829;53.286;10.434;2023-06-10T15:39:46;10.20;;;3.60;;
73557;SDS011;61829;53.286;10.434;2023-06-10T15:42:14;6.95;;;3.40;;
73557;SDS011;61829;53.286;10.434;2023-06-10T15:44:39;9.30;;;3.40;;